createdAt,value
2018-11-28T00:00:26.853Z,5.80
2018-11-28T00:01:26.812Z,5.70
2018-11-28T00:02:26.799Z,6.20
2018-11-28T00:03:26.784Z,6.00
2018-11-28T00:04:26.773Z,5.40
2018-11-28T00:05:26.764Z,5.70
2018-11-28T00:06:26.762Z,5.70
2018-11-28T00:07:26.751Z,6.10
2018-11-28T00:08:26.730Z,5.80
2018-11-28T00:09:26.725Z,6.00
2018-11-28T00:10:26.709Z,6.00
2018-11-28T00:11:26.728Z,5.80
2018-11-28T00:12:26.691Z,5.80
2018-11-28T00:13:26.679Z,5.80
2018-11-28T00:14:26.675Z,5.40
2018-11-28T00:15:26.656Z,5.80
2018-11-28T00:16:26.667Z,5.80
2018-11-28T00:17:26.646Z,5.80
2018-11-28T00:18:26.629Z,5.70
2018-11-28T00:19:26.628Z,5.90
2018-11-28T00:20:26.611Z,5.50
2018-11-28T00:21:26.605Z,5.40
2018-11-28T00:22:26.586Z,5.50
2018-11-28T00:23:26.572Z,5.40
2018-11-28T00:24:26.564Z,5.20
2018-11-28T00:25:26.552Z,5.50
2018-11-28T00:26:26.550Z,5.30
2018-11-28T00:27:26.532Z,5.20
2018-11-28T00:28:26.519Z,5.40
2018-11-28T00:29:26.508Z,5.10
2018-11-28T00:30:26.506Z,5.30
2018-11-28T00:31:26.526Z,5.20
2018-11-28T00:32:26.475Z,5.40
2018-11-28T00:33:26.465Z,5.10
2018-11-28T00:34:26.472Z,5.30
2018-11-28T00:35:26.447Z,5.40
2018-11-28T00:36:26.432Z,5.20
2018-11-28T00:37:26.439Z,5.40
2018-11-28T00:38:26.413Z,5.30
2018-11-28T00:39:26.408Z,5.10
2018-11-28T00:40:26.397Z,4.90
2018-11-28T00:41:26.381Z,5.10
2018-11-28T00:42:26.386Z,5.10
2018-11-28T00:43:26.407Z,5.20
2018-11-28T00:44:26.353Z,5.00
2018-11-28T00:45:26.343Z,5.30
2018-11-28T00:46:26.326Z,5.60
2018-11-28T00:47:26.333Z,5.30
2018-11-28T00:48:26.309Z,5.60
2018-11-28T00:49:26.296Z,5.40
2018-11-28T00:50:26.288Z,5.10
2018-11-28T00:51:26.287Z,5.30
2018-11-28T00:52:26.279Z,5.10
2018-11-28T00:53:26.263Z,5.20
2018-11-28T00:54:26.243Z,5.30
2018-11-28T00:55:26.242Z,5.40
2018-11-28T00:56:26.221Z,5.30
2018-11-28T00:57:26.223Z,5.00
2018-11-28T00:58:26.215Z,5.10
2018-11-28T00:59:26.191Z,5.30
2018-11-28T01:00:26.188Z,5.10
2018-11-28T01:01:26.168Z,5.00
2018-11-28T01:02:26.179Z,5.10
2018-11-28T01:03:26.150Z,5.10
2018-11-28T01:04:26.158Z,4.90
2018-11-28T01:05:26.130Z,5.10
2018-11-28T01:06:26.114Z,5.30
2018-11-28T01:07:26.151Z,5.10
2018-11-28T01:08:26.097Z,4.80
2018-11-28T01:09:26.092Z,4.90
2018-11-28T01:10:26.077Z,5.00
2018-11-28T01:11:26.064Z,5.00
2018-11-28T01:12:26.081Z,4.90
2018-11-28T01:13:26.072Z,5.00
2018-11-28T01:14:26.038Z,4.90
2018-11-28T01:15:26.022Z,5.10
2018-11-28T01:16:26.016Z,4.70
2018-11-28T01:17:26.006Z,5.00
2018-11-28T01:18:26.004Z,4.90
2018-11-28T01:19:25.990Z,4.90
2018-11-28T01:20:25.984Z,4.60
2018-11-28T01:21:25.960Z,5.00
2018-11-28T01:22:25.971Z,4.80
2018-11-28T01:23:25.981Z,4.80
2018-11-28T01:24:25.931Z,4.70
2018-11-28T01:25:25.919Z,4.50
2018-11-28T01:26:25.907Z,4.70
2018-11-28T01:27:25.909Z,4.80
2018-11-28T01:28:25.898Z,4.60
2018-11-28T01:29:25.880Z,5.00
2018-11-28T01:30:25.871Z,4.60
2018-11-28T01:31:25.854Z,4.60
2018-11-28T01:32:25.848Z,4.90
2018-11-28T01:33:25.846Z,4.60
2018-11-28T01:34:25.824Z,4.80
2018-11-28T01:35:25.824Z,4.30
2018-11-28T01:36:25.804Z,4.70
2018-11-28T01:37:25.795Z,4.60
2018-11-28T01:38:25.791Z,5.10
2018-11-28T01:39:25.772Z,4.50
2018-11-28T01:40:25.764Z,4.60
2018-11-28T01:41:25.750Z,4.60
2018-11-28T01:42:25.739Z,4.70
2018-11-28T01:43:25.757Z,4.30
2018-11-28T01:44:25.715Z,4.80
2018-11-28T01:45:25.701Z,4.60
2018-11-28T01:46:25.701Z,4.70
2018-11-28T01:47:25.685Z,4.60
2018-11-28T01:48:25.676Z,4.60
2018-11-28T01:49:25.678Z,4.50
2018-11-28T01:50:25.654Z,4.40
2018-11-28T01:51:25.643Z,4.20
2018-11-28T01:52:25.627Z,4.10
2018-11-28T01:53:25.623Z,4.90
2018-11-28T01:54:25.620Z,4.30
2018-11-28T01:55:25.596Z,4.50
2018-11-28T01:56:25.598Z,4.50
2018-11-28T01:57:25.578Z,4.30
2018-11-28T01:58:25.568Z,4.30
2018-11-28T01:59:25.569Z,4.60
2018-11-28T02:00:25.547Z,4.60
2018-11-28T02:01:25.555Z,4.70
2018-11-28T02:02:25.588Z,4.20
2018-11-28T02:03:25.517Z,4.50
2018-11-28T02:04:25.732Z,4.70
2018-11-28T02:05:25.493Z,4.60
2018-11-28T02:06:25.482Z,4.40
2018-11-28T02:07:25.476Z,5.10
2018-11-28T02:08:25.464Z,4.60
2018-11-28T02:09:25.476Z,4.40
2018-11-28T02:10:25.442Z,4.80
2018-11-28T02:11:25.427Z,4.30
2018-11-28T02:12:25.419Z,4.70
2018-11-28T02:13:25.418Z,4.30
2018-11-28T02:14:25.405Z,4.70
2018-11-28T02:15:25.398Z,4.80
2018-11-28T02:16:25.372Z,4.60
2018-11-28T02:17:25.366Z,4.60
2018-11-28T02:18:25.352Z,4.60
2018-11-28T02:19:25.357Z,4.40
2018-11-28T02:20:25.351Z,4.80
2018-11-28T02:21:25.343Z,4.60
2018-11-28T02:22:25.314Z,4.40
2018-11-28T02:23:25.299Z,4.90
2018-11-28T02:24:25.289Z,4.70
2018-11-28T02:25:25.299Z,4.20
2018-11-28T02:26:25.279Z,4.60
2018-11-28T02:27:25.261Z,4.80
2018-11-28T02:28:25.247Z,4.60
2018-11-28T02:29:25.241Z,4.60
2018-11-28T02:30:25.247Z,4.10
2018-11-28T02:31:25.215Z,4.20
2018-11-28T02:32:25.205Z,4.50
2018-11-28T02:33:25.198Z,4.30
2018-11-28T02:34:25.182Z,4.40
2018-11-28T02:35:25.203Z,4.40
2018-11-28T02:36:25.161Z,4.20
2018-11-28T02:37:25.153Z,4.50
2018-11-28T02:38:25.142Z,4.30
2018-11-28T02:39:25.130Z,4.60
2018-11-28T02:40:25.147Z,4.30
2018-11-28T02:41:25.109Z,4.40
2018-11-28T02:42:25.099Z,4.20
2018-11-28T02:43:25.089Z,4.20
2018-11-28T02:44:25.076Z,4.30
2018-11-28T02:45:25.073Z,3.90
2018-11-28T02:46:25.078Z,4.30
2018-11-28T02:47:25.050Z,3.80
2018-11-28T02:48:25.033Z,4.00
2018-11-28T02:49:25.025Z,4.30
2018-11-28T02:50:25.019Z,4.30
2018-11-28T02:51:25.021Z,4.50
2018-11-28T02:52:24.986Z,4.20
2018-11-28T02:53:24.982Z,4.50
2018-11-28T02:54:24.975Z,4.40
2018-11-28T02:55:24.963Z,4.30
2018-11-28T02:56:24.967Z,4.30
2018-11-28T02:57:24.940Z,4.40
2018-11-28T02:58:24.930Z,3.90
2018-11-28T02:59:24.916Z,4.40
2018-11-28T03:00:24.907Z,4.60
2018-11-28T03:01:24.911Z,4.20
2018-11-28T03:02:24.888Z,4.50
2018-11-28T03:03:24.873Z,4.30
2018-11-28T03:04:24.869Z,4.40
2018-11-28T03:05:24.853Z,4.40
2018-11-28T03:06:24.854Z,4.30
2018-11-28T03:07:24.833Z,4.30
2018-11-28T03:08:24.822Z,4.10
2018-11-28T03:09:24.811Z,4.50
2018-11-28T03:10:24.806Z,4.50
2018-11-28T03:11:24.817Z,4.20
2018-11-28T03:12:24.785Z,4.20
2018-11-28T03:13:24.772Z,4.10
2018-11-28T03:14:24.761Z,4.20
2018-11-28T03:15:24.751Z,4.30
2018-11-28T03:16:24.768Z,4.40
2018-11-28T03:17:24.732Z,4.40
2018-11-28T03:18:24.719Z,4.10
2018-11-28T03:19:24.708Z,4.50
2018-11-28T03:20:24.711Z,4.20
2018-11-28T03:21:24.719Z,4.40
2018-11-28T03:22:24.685Z,4.40
2018-11-28T03:23:24.662Z,4.50
2018-11-28T03:24:24.649Z,4.40
2018-11-28T03:25:24.645Z,4.00
2018-11-28T03:26:24.642Z,4.00
2018-11-28T03:27:24.636Z,4.20
2018-11-28T03:28:24.609Z,4.10
2018-11-28T03:29:24.606Z,4.30
2018-11-28T03:30:24.586Z,4.40
2018-11-28T03:31:24.580Z,4.40
2018-11-28T03:32:24.588Z,4.60
2018-11-28T03:33:24.560Z,4.80
2018-11-28T03:34:24.555Z,4.40
2018-11-28T03:35:24.557Z,4.40
2018-11-28T03:36:24.524Z,4.40
2018-11-28T03:37:24.535Z,4.40
2018-11-28T03:38:24.505Z,4.50
2018-11-28T03:39:24.492Z,4.50
2018-11-28T03:40:24.482Z,4.10
2018-11-28T03:41:24.469Z,4.60
2018-11-28T03:42:24.489Z,4.00
2018-11-28T03:43:24.460Z,4.40
2018-11-28T03:44:24.441Z,4.10
2018-11-28T03:45:24.432Z,4.60
2018-11-28T03:46:24.428Z,3.90
2018-11-28T03:47:24.426Z,4.40
2018-11-28T03:48:24.393Z,4.50
2018-11-28T03:49:24.384Z,4.30
2018-11-28T03:50:24.375Z,4.30
2018-11-28T03:51:24.367Z,4.00
2018-11-28T03:52:24.351Z,4.20
2018-11-28T03:53:24.355Z,4.10
2018-11-28T03:54:24.331Z,4.10
2018-11-28T03:55:24.325Z,3.90
2018-11-28T03:56:24.309Z,4.00
2018-11-28T03:57:24.317Z,3.80
2018-11-28T03:58:24.303Z,4.40
2018-11-28T03:59:24.281Z,4.60
2018-11-28T04:00:24.271Z,4.60
2018-11-28T04:01:24.260Z,4.60
2018-11-28T04:02:24.251Z,4.10
2018-11-28T04:03:24.254Z,4.20
2018-11-28T04:04:24.237Z,4.40
2018-11-28T04:05:24.220Z,4.20
2018-11-28T04:06:24.209Z,4.50
2018-11-28T04:07:24.194Z,4.20
2018-11-28T04:08:24.202Z,4.30
2018-11-28T04:09:24.179Z,4.70
2018-11-28T04:10:24.162Z,4.00
2018-11-28T04:11:24.153Z,4.50
2018-11-28T04:12:24.141Z,4.60
2018-11-28T04:13:24.140Z,4.10
2018-11-28T04:14:24.122Z,3.80
2018-11-28T04:15:24.106Z,4.10
2018-11-28T04:16:24.101Z,4.20
2018-11-28T04:17:24.094Z,4.20
2018-11-28T04:18:24.107Z,4.20
2018-11-28T04:19:24.067Z,4.20
2018-11-28T04:20:24.059Z,4.00
2018-11-28T04:21:24.045Z,3.70
2018-11-28T04:22:24.038Z,4.30
2018-11-28T04:23:24.032Z,4.20
2018-11-28T04:24:24.030Z,4.10
2018-11-28T04:25:24.003Z,3.90
2018-11-28T04:26:23.996Z,4.00
2018-11-28T04:27:23.989Z,3.90
2018-11-28T04:28:23.973Z,3.80
2018-11-28T04:29:23.973Z,4.00
2018-11-28T04:30:23.951Z,4.00
2018-11-28T04:31:23.953Z,4.40
2018-11-28T04:32:23.931Z,4.00
2018-11-28T04:33:23.916Z,4.10
2018-11-28T04:34:23.921Z,4.20
2018-11-28T04:35:23.903Z,4.30
2018-11-28T04:36:23.894Z,4.20
2018-11-28T04:37:23.892Z,4.30
2018-11-28T04:38:23.870Z,4.50
2018-11-28T04:39:23.875Z,4.60
2018-11-28T04:40:23.844Z,4.40
2018-11-28T04:41:23.830Z,4.50
2018-11-28T04:42:23.826Z,4.30
2018-11-28T04:43:23.813Z,4.50
2018-11-28T04:44:23.828Z,4.40
2018-11-28T04:45:23.794Z,4.10
2018-11-28T04:46:23.780Z,4.10
2018-11-28T04:47:23.778Z,4.10
2018-11-28T04:48:23.758Z,4.20
2018-11-28T04:49:23.765Z,4.10
2018-11-28T04:50:23.743Z,4.30
2018-11-28T04:51:23.725Z,4.10
2018-11-28T04:52:23.717Z,3.80
2018-11-28T04:53:23.708Z,4.00
2018-11-28T04:54:23.709Z,4.10
2018-11-28T04:55:23.687Z,4.50
2018-11-28T04:56:23.674Z,4.40
2018-11-28T04:57:23.665Z,4.30
2018-11-28T04:58:23.654Z,4.20
2018-11-28T04:59:23.665Z,3.90
2018-11-28T05:00:23.632Z,4.10
2018-11-28T05:01:23.622Z,4.40
2018-11-28T05:02:23.616Z,4.50
2018-11-28T05:03:23.602Z,4.10
2018-11-28T05:04:23.625Z,3.90
2018-11-28T05:05:23.576Z,4.50
2018-11-28T05:06:23.572Z,3.90
2018-11-28T05:07:23.559Z,3.90
2018-11-28T05:08:23.547Z,8.00
2018-11-28T05:09:23.540Z,13.30
2018-11-28T05:10:23.604Z,15.40
2018-11-28T05:11:23.514Z,15.70
2018-11-28T05:12:23.517Z,12.80
2018-11-28T05:13:23.502Z,13.40
2018-11-28T05:14:23.481Z,13.10
2018-11-28T05:15:23.486Z,13.70
2018-11-28T05:16:23.476Z,13.20
2018-11-28T05:17:23.452Z,13.50
2018-11-28T05:18:23.444Z,13.00
2018-11-28T05:19:23.433Z,13.10
2018-11-28T05:20:23.436Z,13.30
2018-11-28T05:21:23.415Z,12.10
2018-11-28T05:22:23.397Z,13.60
2018-11-28T05:23:23.387Z,12.50
2018-11-28T05:24:23.385Z,12.60
2018-11-28T05:25:23.374Z,12.00
2018-11-28T05:26:23.360Z,11.90
2018-11-28T05:27:23.348Z,11.50
2018-11-28T05:28:23.340Z,11.60
2018-11-28T05:29:23.328Z,11.40
2018-11-28T05:30:23.343Z,11.10
2018-11-28T05:31:23.312Z,10.70
2018-11-28T05:32:23.297Z,11.10
2018-11-28T05:33:23.282Z,10.80
2018-11-28T05:34:23.271Z,10.40
2018-11-28T05:35:23.275Z,11.00
2018-11-28T05:36:23.248Z,11.40
2018-11-28T05:37:23.243Z,12.20
2018-11-28T05:38:23.229Z,11.50
2018-11-28T05:39:23.217Z,11.50
2018-11-28T05:40:23.220Z,11.60
2018-11-28T05:41:23.198Z,11.20
2018-11-28T05:42:23.188Z,11.70
2018-11-28T05:43:23.177Z,12.10
2018-11-28T05:44:23.169Z,11.40
2018-11-28T05:45:23.178Z,11.40
2018-11-28T05:46:23.147Z,10.80
2018-11-28T05:47:23.136Z,11.60
2018-11-28T05:48:23.126Z,11.50
2018-11-28T05:49:23.110Z,11.60
2018-11-28T05:50:23.136Z,11.30
2018-11-28T05:51:23.091Z,12.30
2018-11-28T05:52:23.081Z,12.30
2018-11-28T05:53:23.067Z,11.90
2018-11-28T05:54:23.054Z,12.00
2018-11-28T05:55:23.046Z,11.90
2018-11-28T05:56:23.051Z,11.50
2018-11-28T05:57:23.052Z,11.70
2018-11-28T05:58:23.017Z,11.60
2018-11-28T05:59:27.265Z,12.10
2018-11-28T06:00:22.994Z,11.60
2018-11-28T06:01:23.002Z,11.60
2018-11-28T06:02:22.968Z,11.50
2018-11-28T06:03:22.959Z,11.50
2018-11-28T06:04:22.952Z,11.70
2018-11-28T06:05:22.944Z,11.70
2018-11-28T06:06:22.943Z,11.50
2018-11-28T06:07:22.923Z,11.70
2018-11-28T06:08:22.906Z,11.20
2018-11-28T06:09:22.900Z,11.60
2018-11-28T06:10:22.889Z,10.90
2018-11-28T06:11:22.891Z,11.30
2018-11-28T06:12:22.862Z,10.70
2018-11-28T06:13:22.853Z,11.00
2018-11-28T06:14:22.854Z,11.30
2018-11-28T06:15:22.836Z,11.10
2018-11-28T06:16:22.836Z,10.90
2018-11-28T06:17:22.814Z,10.60
2018-11-28T06:18:22.813Z,10.80
2018-11-28T06:19:22.786Z,10.50
2018-11-28T06:20:22.782Z,11.00
2018-11-28T06:21:22.794Z,10.40
2018-11-28T06:22:22.768Z,10.80
2018-11-28T06:23:22.751Z,10.90
2018-11-28T06:24:22.741Z,10.50
2018-11-28T06:25:22.741Z,10.30
2018-11-28T06:26:22.731Z,10.10
2018-11-28T06:27:22.727Z,9.90
2018-11-28T06:28:22.709Z,9.80
2018-11-28T06:29:22.682Z,10.00
2018-11-28T06:30:22.677Z,10.20
2018-11-28T06:31:22.697Z,9.60
2018-11-28T06:32:22.653Z,10.00
2018-11-28T06:33:22.638Z,9.60
2018-11-28T06:34:22.632Z,10.00
2018-11-28T06:35:22.624Z,9.30
2018-11-28T06:36:22.617Z,9.50
2018-11-28T06:37:22.614Z,9.50
2018-11-28T06:38:22.593Z,9.20
2018-11-28T06:39:22.585Z,9.20
2018-11-28T06:40:24.244Z,9.10
2018-11-28T06:41:22.562Z,9.50
2018-11-28T06:42:22.558Z,9.50
2018-11-28T06:43:22.541Z,9.20
2018-11-28T06:44:22.554Z,9.00
2018-11-28T06:45:22.513Z,9.30
2018-11-28T06:46:22.504Z,9.10
2018-11-28T06:47:22.511Z,9.10
2018-11-28T06:48:22.475Z,9.20
2018-11-28T06:49:22.485Z,8.80
2018-11-28T06:50:22.458Z,8.60
2018-11-28T06:51:22.455Z,9.40
2018-11-28T06:52:22.471Z,9.00
2018-11-28T06:53:22.428Z,8.70
2018-11-28T06:54:22.421Z,8.70
2018-11-28T06:55:22.414Z,8.70
2018-11-28T06:56:22.395Z,8.50
2018-11-28T06:57:22.398Z,8.30
2018-11-28T06:58:22.378Z,8.50
2018-11-28T06:59:22.363Z,8.20
2018-11-28T07:00:22.356Z,8.60
2018-11-28T07:01:22.344Z,8.30
2018-11-28T07:02:22.346Z,8.40
2018-11-28T07:03:22.333Z,7.80
2018-11-28T07:04:22.311Z,7.70
2018-11-28T07:05:22.294Z,8.30
2018-11-28T07:06:22.289Z,8.30
2018-11-28T07:07:22.296Z,8.20
2018-11-28T07:08:22.267Z,8.10
2018-11-28T07:09:22.260Z,8.00
2018-11-28T07:10:22.260Z,8.20
2018-11-28T07:11:22.239Z,8.10
2018-11-28T07:12:22.235Z,8.00
2018-11-28T07:13:22.213Z,8.00
2018-11-28T07:14:22.202Z,7.90
2018-11-28T07:15:22.194Z,7.80
2018-11-28T07:16:22.179Z,7.60
2018-11-28T07:17:22.187Z,7.70
2018-11-28T07:18:22.154Z,8.40
2018-11-28T07:19:22.153Z,7.50
2018-11-28T07:20:22.134Z,7.60
2018-11-28T07:21:22.128Z,7.40
2018-11-28T07:22:22.150Z,7.70
2018-11-28T07:23:22.105Z,7.80
2018-11-28T07:24:22.095Z,8.20
2018-11-28T07:25:22.088Z,7.90
2018-11-28T07:26:22.075Z,7.50
2018-11-28T07:27:23.258Z,7.70
2018-11-28T07:28:22.068Z,7.40
2018-11-28T07:29:22.039Z,7.60
2018-11-28T07:30:22.033Z,7.90
2018-11-28T07:31:22.021Z,7.50
2018-11-28T07:32:22.016Z,7.30
2018-11-28T07:33:22.007Z,7.60
2018-11-28T07:34:21.985Z,7.30
2018-11-28T07:35:21.978Z,7.50
2018-11-28T07:36:21.975Z,7.40
2018-11-28T07:37:21.961Z,7.40
2018-11-28T07:38:21.959Z,7.70
2018-11-28T07:39:21.959Z,7.50
2018-11-28T07:40:22.041Z,7.80
2018-11-28T07:41:21.913Z,7.30
2018-11-28T07:42:21.904Z,7.50
2018-11-28T07:43:21.904Z,7.20
2018-11-28T07:44:21.947Z,7.20
2018-11-28T07:45:21.868Z,7.30
2018-11-28T07:46:21.863Z,7.30
2018-11-28T07:47:21.853Z,7.40
2018-11-28T07:48:21.855Z,7.60
2018-11-28T07:49:21.829Z,7.90
2018-11-28T07:50:21.821Z,7.60
2018-11-28T07:51:21.814Z,7.30
2018-11-28T07:52:21.802Z,7.20
2018-11-28T07:53:21.808Z,7.50
2018-11-28T07:54:21.773Z,7.30
2018-11-28T07:55:21.776Z,7.20
2018-11-28T07:56:21.767Z,7.10
2018-11-28T07:57:21.747Z,7.40
2018-11-28T07:58:21.754Z,7.10
2018-11-28T07:59:21.731Z,7.70
2018-11-28T08:00:21.738Z,7.80
2018-11-28T08:01:21.704Z,7.30
2018-11-28T08:02:21.695Z,7.40
2018-11-28T08:03:21.698Z,7.40
2018-11-28T08:04:21.905Z,7.30
2018-11-28T08:05:21.660Z,7.00
2018-11-28T08:06:21.661Z,7.40
2018-11-28T08:07:21.641Z,7.40
2018-11-28T08:08:21.640Z,6.80
2018-11-28T08:09:21.619Z,7.10
2018-11-28T08:10:21.610Z,7.10
2018-11-28T08:11:21.599Z,7.00
2018-11-28T08:12:21.589Z,7.20
2018-11-28T08:13:21.594Z,7.10
2018-11-28T08:14:21.573Z,6.90
2018-11-28T08:15:21.564Z,6.90
2018-11-28T08:16:21.550Z,6.80
2018-11-28T08:17:21.547Z,6.80
2018-11-28T08:18:21.542Z,6.80
2018-11-28T08:19:23.967Z,6.90
2018-11-28T08:20:21.511Z,6.40
2018-11-28T08:21:21.519Z,6.90
2018-11-28T08:22:21.487Z,6.70
2018-11-28T08:23:21.494Z,6.70
2018-11-28T08:24:21.460Z,6.70
2018-11-28T08:25:27.473Z,6.90
2018-11-28T08:26:22.439Z,6.50
2018-11-28T08:27:21.436Z,7.00
2018-11-28T08:28:22.274Z,6.50
2018-11-28T08:29:21.413Z,6.50
2018-11-28T08:30:21.402Z,6.70
2018-11-28T08:31:21.393Z,6.70
2018-11-28T08:32:21.403Z,6.40
2018-11-28T08:33:21.395Z,6.80
2018-11-28T08:34:21.363Z,6.30
2018-11-28T08:35:21.354Z,6.40
2018-11-28T08:36:21.341Z,6.70
2018-11-28T08:37:21.327Z,7.00
2018-11-28T08:38:21.353Z,7.10
2018-11-28T08:39:21.309Z,6.90
2018-11-28T08:40:21.310Z,6.40
2018-11-28T08:41:21.291Z,6.80
2018-11-28T08:42:21.281Z,6.80
2018-11-28T08:43:21.278Z,6.80
2018-11-28T08:44:21.278Z,6.40
2018-11-28T08:45:21.308Z,6.90
2018-11-28T08:46:21.256Z,6.90
2018-11-28T08:47:21.225Z,6.90
2018-11-28T08:48:21.263Z,6.50
2018-11-28T08:49:21.239Z,6.40
2018-11-28T08:50:21.197Z,6.70
2018-11-28T08:51:21.183Z,6.70
2018-11-28T08:52:21.197Z,6.50
2018-11-28T08:53:21.165Z,6.20
2018-11-28T08:54:21.168Z,6.60
2018-11-28T08:55:21.144Z,6.60
2018-11-28T08:56:21.131Z,6.70
2018-11-28T08:57:21.118Z,6.10
2018-11-28T08:58:21.116Z,6.60
2018-11-28T08:59:21.124Z,6.60
2018-11-28T09:00:21.095Z,6.40
2018-11-28T09:01:21.095Z,6.40
2018-11-28T09:02:21.089Z,6.40
2018-11-28T09:03:21.076Z,6.30
2018-11-28T09:04:21.073Z,6.40
2018-11-28T09:05:21.048Z,6.20
2018-11-28T09:06:21.026Z,6.20
2018-11-28T09:07:21.020Z,6.10
2018-11-28T09:08:21.012Z,6.80
2018-11-28T09:09:20.996Z,6.10
2018-11-28T09:10:20.999Z,6.70
2018-11-28T09:11:20.976Z,6.10
2018-11-28T09:12:20.968Z,6.00
2018-11-28T09:13:20.958Z,6.00
2018-11-28T09:14:20.948Z,6.30
2018-11-28T09:15:20.950Z,6.50
2018-11-28T09:16:20.927Z,6.40
2018-11-28T09:17:20.919Z,6.00
2018-11-28T09:18:20.906Z,6.10
2018-11-28T09:19:20.895Z,6.20
2018-11-28T09:20:20.895Z,5.70
2018-11-28T09:21:20.878Z,6.30
2018-11-28T09:22:20.866Z,5.80
2018-11-28T09:23:20.852Z,6.40
2018-11-28T09:24:20.841Z,6.20
2018-11-28T09:25:20.842Z,5.80
2018-11-28T09:26:20.826Z,5.90
2018-11-28T09:27:20.805Z,6.50
2018-11-28T09:28:20.797Z,5.90
2018-11-28T09:29:20.787Z,5.70
2018-11-28T09:30:20.788Z,6.10
2018-11-28T09:31:20.774Z,5.70
2018-11-28T09:32:20.752Z,5.70
2018-11-28T09:33:20.757Z,6.50
2018-11-28T09:34:20.765Z,5.80
2018-11-28T09:35:20.735Z,5.70
2018-11-28T09:36:20.710Z,6.00
2018-11-28T09:37:20.701Z,5.60
2018-11-28T09:38:21.437Z,6.10
2018-11-28T09:39:20.687Z,5.60
2018-11-28T09:40:20.716Z,5.90
2018-11-28T09:41:20.672Z,5.40
2018-11-28T09:42:20.655Z,5.50
2018-11-28T09:43:20.640Z,5.80
2018-11-28T09:44:20.629Z,6.00
2018-11-28T09:45:20.632Z,6.00
2018-11-28T09:46:20.617Z,5.50
2018-11-28T09:47:20.599Z,5.80
2018-11-28T09:48:20.595Z,6.10
2018-11-28T09:49:20.580Z,5.70
2018-11-28T09:50:20.589Z,5.90
2018-11-28T09:51:20.561Z,5.60
2018-11-28T09:52:20.551Z,5.60
2018-11-28T09:53:20.539Z,5.60
2018-11-28T09:54:20.529Z,5.90
2018-11-28T09:55:20.543Z,5.30
2018-11-28T09:56:20.506Z,5.30
2018-11-28T09:57:20.496Z,5.70
2018-11-28T09:58:20.490Z,5.30
2018-11-28T09:59:20.474Z,5.80
2018-11-28T10:00:20.488Z,5.90
2018-11-28T10:01:20.453Z,5.50
2018-11-28T10:02:20.440Z,5.40
2018-11-28T10:03:20.436Z,5.70
2018-11-28T10:04:20.425Z,5.70
2018-11-28T10:05:20.428Z,5.60
2018-11-28T10:06:20.401Z,5.30
2018-11-28T10:07:20.391Z,5.20
2018-11-28T10:08:20.381Z,5.40
2018-11-28T10:09:20.864Z,5.70
2018-11-28T10:10:20.380Z,5.90
2018-11-28T10:11:20.348Z,5.30
2018-11-28T10:12:20.339Z,5.30
2018-11-28T10:13:20.326Z,5.40
2018-11-28T10:14:20.325Z,5.40
2018-11-28T10:15:20.330Z,5.20
2018-11-28T10:16:20.298Z,5.60
2018-11-28T10:17:20.292Z,5.60
2018-11-28T10:18:20.269Z,5.50
2018-11-28T10:19:20.261Z,5.80
2018-11-28T10:20:20.274Z,5.30
2018-11-28T10:21:20.241Z,5.40
2018-11-28T10:22:20.229Z,5.50
2018-11-28T10:23:20.220Z,5.20
2018-11-28T10:24:20.203Z,5.50
2018-11-28T10:25:20.217Z,5.10
2018-11-28T10:26:20.250Z,5.00
2018-11-28T10:27:20.169Z,5.20
2018-11-28T10:28:20.161Z,5.30
2018-11-28T10:29:20.153Z,5.50
2018-11-28T10:30:20.151Z,5.10
2018-11-28T10:31:20.133Z,5.00
2018-11-28T10:32:20.118Z,5.00
2018-11-28T10:33:20.170Z,4.80
2018-11-28T10:34:20.096Z,5.40
2018-11-28T10:35:20.121Z,5.30
2018-11-28T10:36:20.073Z,4.90
2018-11-28T10:37:20.063Z,5.10
2018-11-28T10:38:20.061Z,5.50
2018-11-28T10:39:20.047Z,5.00
2018-11-28T10:40:20.036Z,5.40
2018-11-28T10:41:20.036Z,5.20
2018-11-28T10:42:20.041Z,5.30
2018-11-28T10:43:20.006Z,5.20
2018-11-28T10:44:20.002Z,4.80
2018-11-28T10:45:19.984Z,5.00
2018-11-28T10:46:19.985Z,5.10
2018-11-28T10:47:19.962Z,5.10
2018-11-28T10:48:19.952Z,5.20
2018-11-28T10:49:19.937Z,4.80
2018-11-28T10:50:19.934Z,5.00
2018-11-28T10:51:19.933Z,4.80
2018-11-28T10:52:19.903Z,4.90
2018-11-28T10:53:19.893Z,4.80
2018-11-28T10:54:19.884Z,4.70
2018-11-28T10:55:19.873Z,5.30
2018-11-28T10:56:19.876Z,4.70
2018-11-28T10:57:19.849Z,5.10
2018-11-28T10:58:19.847Z,5.00
2018-11-28T10:59:19.852Z,5.10
2018-11-28T11:00:19.819Z,4.70
2018-11-28T11:01:20.673Z,5.20
2018-11-28T11:02:19.799Z,4.70
2018-11-28T11:03:19.784Z,5.10
2018-11-28T11:04:19.778Z,5.00
2018-11-28T11:05:19.768Z,4.90
2018-11-28T11:06:19.764Z,4.80
2018-11-28T11:07:19.748Z,5.00
2018-11-28T11:08:19.736Z,5.00
2018-11-28T11:09:19.725Z,5.00
2018-11-28T11:10:19.712Z,5.00
2018-11-28T11:11:19.738Z,4.70
2018-11-28T11:12:19.697Z,4.90
2018-11-28T11:13:19.691Z,4.90
2018-11-28T11:14:19.681Z,4.90
2018-11-28T11:15:19.670Z,4.80
2018-11-28T11:16:19.658Z,5.00
2018-11-28T11:17:19.632Z,4.70
2018-11-28T11:18:19.625Z,5.20
2018-11-28T11:19:19.617Z,5.00
2018-11-28T11:20:19.608Z,4.70
2018-11-28T11:21:19.606Z,4.70
2018-11-28T11:22:19.583Z,4.90
2018-11-28T11:23:19.576Z,4.70
2018-11-28T11:24:19.560Z,4.90
2018-11-28T11:25:19.666Z,4.80
2018-11-28T11:26:19.565Z,4.80
2018-11-28T11:27:19.540Z,4.80
2018-11-28T11:28:19.526Z,4.90
2018-11-28T11:29:19.514Z,4.70
2018-11-28T11:30:19.502Z,4.80
2018-11-28T11:31:19.507Z,4.80
2018-11-28T11:32:19.530Z,4.70
2018-11-28T11:33:19.480Z,4.50
2018-11-28T11:34:19.461Z,4.60
2018-11-28T11:35:19.453Z,4.90
2018-11-28T11:36:19.469Z,4.80
2018-11-28T11:37:19.433Z,4.80
2018-11-28T11:38:19.430Z,4.60
2018-11-28T11:39:19.408Z,4.20
2018-11-28T11:40:19.399Z,4.70
2018-11-28T11:41:19.396Z,4.60
2018-11-28T11:42:19.403Z,4.90
2018-11-28T11:43:19.373Z,4.60
2018-11-28T11:44:19.367Z,4.70
2018-11-28T11:45:19.359Z,4.70
2018-11-28T11:46:19.346Z,4.90
2018-11-28T11:47:19.342Z,4.40
2018-11-28T11:48:19.318Z,4.50
2018-11-28T11:49:19.311Z,4.60
2018-11-28T11:50:19.303Z,4.40
2018-11-28T11:51:19.286Z,4.50
2018-11-28T11:52:19.292Z,4.80
2018-11-28T11:53:19.266Z,4.20
2018-11-28T11:54:19.263Z,4.30
2018-11-28T11:55:19.244Z,4.70
2018-11-28T11:56:19.242Z,4.70
2018-11-28T11:57:19.250Z,4.50
2018-11-28T11:58:19.228Z,4.40
2018-11-28T11:59:19.205Z,4.50
2018-11-28T12:00:19.195Z,4.70
2018-11-28T12:01:19.250Z,4.40
2018-11-28T12:02:19.193Z,4.50
2018-11-28T12:03:19.250Z,4.50
2018-11-28T12:04:19.154Z,4.70
2018-11-28T12:05:19.174Z,4.60
2018-11-28T12:06:19.134Z,4.30
2018-11-28T12:07:19.141Z,4.40
2018-11-28T12:08:19.113Z,4.70
2018-11-28T12:09:19.103Z,4.10
2018-11-28T12:10:19.089Z,4.40
2018-11-28T12:11:19.084Z,4.40
2018-11-28T12:12:19.099Z,4.40
2018-11-28T12:13:19.058Z,4.20
2018-11-28T12:14:19.047Z,4.40
2018-11-28T12:15:19.038Z,4.30
2018-11-28T12:16:21.536Z,4.50
2018-11-28T12:17:19.665Z,4.30
2018-11-28T12:18:19.024Z,4.40
2018-11-28T12:19:18.996Z,4.40
2018-11-28T12:20:18.987Z,4.30
2018-11-28T12:21:18.974Z,4.00
2018-11-28T12:22:18.962Z,4.30
2018-11-28T12:23:18.974Z,4.40
2018-11-28T12:24:18.943Z,4.40
2018-11-28T12:25:18.943Z,4.20
2018-11-28T12:26:18.920Z,4.60
2018-11-28T12:27:18.907Z,4.30
2018-11-28T12:28:18.912Z,4.30
2018-11-28T12:29:18.894Z,4.10
2018-11-28T12:30:18.877Z,4.40
2018-11-28T12:31:18.876Z,4.30
2018-11-28T12:32:18.855Z,4.30
2018-11-28T12:33:18.870Z,4.20
2018-11-28T12:34:18.839Z,4.20
2018-11-28T12:35:18.837Z,4.00
2018-11-28T12:36:18.818Z,4.20
2018-11-28T12:37:18.805Z,4.50
2018-11-28T12:38:18.823Z,4.20
2018-11-28T12:40:18.777Z,4.30
2018-11-28T12:41:18.788Z,4.20
2018-11-28T12:42:18.756Z,4.00
2018-11-28T12:43:18.762Z,4.10
2018-11-28T12:44:18.730Z,4.30
2018-11-28T12:45:18.726Z,4.00
2018-11-28T12:46:18.715Z,3.70
2018-11-28T12:47:18.714Z,4.00
2018-11-28T12:48:18.707Z,4.30
2018-11-28T12:49:18.682Z,4.20
2018-11-28T12:50:18.681Z,4.40
2018-11-28T12:51:18.664Z,4.40
2018-11-28T12:52:18.665Z,4.00
2018-11-28T12:53:18.659Z,4.30
2018-11-28T12:54:18.621Z,3.90
2018-11-28T12:55:18.618Z,4.40
2018-11-28T12:56:18.630Z,4.30
2018-11-28T12:57:18.595Z,4.40
2018-11-28T12:58:18.593Z,4.40
2018-11-28T12:59:18.577Z,4.10
2018-11-28T13:00:18.570Z,4.30
2018-11-28T13:01:18.557Z,3.90
2018-11-28T13:02:18.542Z,4.50
2018-11-28T13:03:18.575Z,4.50
2018-11-28T13:04:18.536Z,4.20
2018-11-28T13:05:18.525Z,4.20
2018-11-28T13:06:18.495Z,4.30
2018-11-28T13:07:18.488Z,4.30
2018-11-28T13:08:18.494Z,4.00
2018-11-28T13:09:18.478Z,4.20
2018-11-28T13:10:18.460Z,4.50
2018-11-28T13:11:18.452Z,4.60
2018-11-28T13:12:18.437Z,4.30
2018-11-28T13:13:18.448Z,4.10
2018-11-28T13:14:18.418Z,3.90
2018-11-28T13:15:18.403Z,4.50
2018-11-28T13:16:18.404Z,4.00